createdAt,value
2019-03-05T00:00:34.672Z,95781.16
2019-03-05T00:03:04.358Z,95780.36
2019-03-05T00:05:34.016Z,95780.16
2019-03-05T00:08:03.625Z,95781.54
2019-03-05T00:10:33.280Z,95788.98
2019-03-05T00:13:02.894Z,95787.20
2019-03-05T00:15:32.892Z,95803.16
2019-03-05T00:18:02.578Z,95813.43
2019-03-05T00:20:32.164Z,95814.64
2019-03-05T00:23:01.850Z,95807.09
2019-03-05T00:25:36.876Z,95818.81
2019-03-05T00:28:28.120Z,95829.56
2019-03-05T00:31:16.960Z,95819.72
2019-03-05T00:34:14.697Z,95818.44
2019-03-05T00:37:00.737Z,95830.06
2019-03-05T00:39:49.648Z,95827.07
2019-03-05T00:42:58.091Z,95842.83
2019-03-05T00:45:58.905Z,95846.79
2019-03-05T00:48:59.796Z,95856.84
2019-03-05T00:51:36.671Z,95861.21
2019-03-05T00:54:25.430Z,95867.42
2019-03-05T00:57:08.268Z,95864.78
2019-03-05T01:00:12.096Z,95874.20
2019-03-05T01:03:22.192Z,95869.31
2019-03-05T01:06:02.374Z,95873.00
2019-03-05T01:08:33.871Z,95857.88
2019-03-05T01:11:03.551Z,95863.44
2019-03-05T01:13:33.448Z,95866.12
2019-03-05T01:16:04.729Z,95886.69
2019-03-05T01:18:34.608Z,95880.77
2019-03-05T01:21:04.607Z,95874.02
2019-03-05T01:23:34.357Z,95884.09
2019-03-05T01:26:04.250Z,95882.83
2019-03-05T01:28:34.008Z,95880.41
2019-03-05T01:31:21.086Z,95880.58
2019-03-05T01:34:04.540Z,95875.01
2019-03-05T01:36:35.834Z,95873.54
2019-03-05T01:39:19.742Z,95861.61
2019-03-05T01:41:49.328Z,95854.84
2019-03-05T01:44:18.939Z,95853.04
2019-03-05T01:46:48.635Z,95859.00
2019-03-05T01:49:18.288Z,95864.98
2019-03-05T01:51:47.969Z,95870.75
2019-03-05T01:54:17.722Z,95871.11
2019-03-05T01:56:47.312Z,95876.08
2019-03-05T01:59:16.921Z,95869.66
2019-03-05T02:01:46.673Z,95863.53
2019-03-05T02:04:16.399Z,95866.86
2019-03-05T02:06:46.057Z,95877.58
2019-03-05T02:09:16.105Z,95885.33
2019-03-05T02:11:45.829Z,95888.30
2019-03-05T02:14:15.443Z,95886.01
2019-03-05T02:16:45.101Z,95888.13
2019-03-05T02:19:38.109Z,95895.09
2019-03-05T02:22:12.309Z,95906.30
2019-03-05T02:25:01.324Z,95901.17
2019-03-05T02:28:10.128Z,95906.13
2019-03-05T02:31:02.705Z,95906.78
2019-03-05T02:33:55.624Z,95913.53
2019-03-05T02:36:50.212Z,95919.81
2019-03-05T02:39:48.334Z,95922.53
2019-03-05T02:42:31.195Z,95925.06
2019-03-05T02:45:33.724Z,95925.03
2019-03-05T02:48:13.614Z,95926.30
2019-03-05T02:51:08.638Z,95934.88
2019-03-05T02:53:59.104Z,95938.05
2019-03-05T02:56:50.300Z,95938.78
2019-03-05T02:59:18.205Z,95936.83
2019-03-05T03:02:05.542Z,95954.56
2019-03-05T03:04:40.774Z,95965.52
2019-03-05T03:07:10.530Z,95951.38
2019-03-05T03:09:50.225Z,95967.32
2019-03-05T03:12:19.906Z,95971.41
2019-03-05T03:14:49.595Z,95964.83
2019-03-05T03:17:19.269Z,95975.91
2019-03-05T03:19:48.945Z,95985.72
2019-03-05T03:22:18.603Z,95985.37
2019-03-05T03:24:48.238Z,95984.20
2019-03-05T03:27:17.894Z,96002.78
2019-03-05T03:29:47.524Z,95992.75
2019-03-05T03:32:17.115Z,96011.64
2019-03-05T03:34:46.741Z,96009.48
2019-03-05T03:37:16.390Z,95997.95
2019-03-05T03:39:45.974Z,95995.82
2019-03-05T03:42:15.585Z,96004.18
2019-03-05T03:44:45.206Z,95998.55
2019-03-05T03:47:14.860Z,95998.81
2019-03-05T03:49:44.447Z,95991.96
2019-03-05T03:52:14.134Z,95993.72
2019-03-05T03:54:43.749Z,95990.77
2019-03-05T03:57:13.466Z,95986.33
2019-03-05T03:59:43.079Z,95991.60
2019-03-05T04:02:12.668Z,95998.86
2019-03-05T04:04:42.415Z,96004.53
2019-03-05T04:07:12.163Z,96006.47
2019-03-05T04:09:41.911Z,95995.56
2019-03-05T04:12:11.586Z,95996.17
2019-03-05T04:14:41.177Z,95995.86
2019-03-05T04:17:10.791Z,96002.55
2019-03-05T04:19:40.518Z,95995.72
2019-03-05T04:22:10.116Z,96006.45
2019-03-05T04:24:39.920Z,96017.20
2019-03-05T04:27:09.539Z,96017.00
2019-03-05T04:29:39.123Z,96033.92
2019-03-05T04:32:08.742Z,96040.91
2019-03-05T04:34:38.335Z,96046.78
2019-03-05T04:37:07.935Z,96048.43
2019-03-05T04:39:37.544Z,96043.66
2019-03-05T04:42:07.274Z,96056.88
2019-03-05T04:44:38.519Z,96051.94
2019-03-05T04:47:08.165Z,96059.34
2019-03-05T04:49:41.998Z,96063.66
2019-03-05T04:52:13.244Z,96074.38
2019-03-05T04:54:42.829Z,96067.31
2019-03-05T04:57:12.683Z,96076.64
2019-03-05T04:59:42.290Z,96075.22
2019-03-05T05:02:12.046Z,96072.31
2019-03-05T05:04:41.631Z,96079.15
2019-03-05T05:07:11.245Z,96075.63
2019-03-05T05:09:40.831Z,96076.03
2019-03-05T05:12:10.457Z,96075.17
2019-03-05T05:14:40.041Z,96082.48
2019-03-05T05:17:09.630Z,96082.63
2019-03-05T05:19:39.249Z,96087.55
2019-03-05T05:22:08.833Z,96086.47
2019-03-05T05:24:38.444Z,96088.59
2019-03-05T05:27:08.036Z,96093.66
2019-03-05T05:29:37.662Z,96093.64
2019-03-05T05:32:07.249Z,96095.11
2019-03-05T05:34:36.837Z,96104.34
2019-03-05T05:37:06.451Z,96106.69
2019-03-05T05:40:26.193Z,96105.48
2019-03-05T05:42:55.806Z,96104.76
2019-03-05T05:45:46.940Z,96110.02
2019-03-05T05:48:16.669Z,96115.84
2019-03-05T05:50:46.326Z,96119.02
2019-03-05T05:53:16.078Z,96112.02
2019-03-05T05:55:46.796Z,96117.86
2019-03-05T05:58:16.480Z,96117.44
2019-03-05T06:00:47.855Z,96123.05
2019-03-05T06:03:17.470Z,96123.63
2019-03-05T06:05:47.050Z,96123.36
2019-03-05T06:08:16.734Z,96127.59
2019-03-05T06:10:46.698Z,96136.53
2019-03-05T06:13:16.364Z,96124.13
2019-03-05T06:15:45.978Z,96131.59
2019-03-05T06:18:15.593Z,96134.13
2019-03-05T06:20:45.215Z,96136.44
2019-03-05T06:23:14.832Z,96134.70
2019-03-05T06:25:44.479Z,96140.06
2019-03-05T06:28:14.081Z,96141.63
2019-03-05T06:30:44.405Z,96139.55
2019-03-05T06:33:14.023Z,96141.00
2019-03-05T06:35:43.845Z,96146.73
2019-03-05T06:38:13.529Z,96146.39
2019-03-05T06:40:43.111Z,96152.57
2019-03-05T06:43:13.320Z,96149.90
2019-03-05T06:45:43.004Z,96153.38
2019-03-05T06:48:12.692Z,96145.81
2019-03-05T06:50:42.305Z,96151.14
2019-03-05T06:53:11.969Z,96149.91
2019-03-05T06:55:41.610Z,96150.48
2019-03-05T06:58:11.985Z,96155.20
2019-03-05T07:00:41.977Z,96146.16
2019-03-05T07:03:11.755Z,96151.78
2019-03-05T07:06:35.888Z,96158.56
2019-03-05T07:09:15.495Z,96154.67
2019-03-05T07:11:55.517Z,96144.84
2019-03-05T07:14:41.399Z,96147.63
2019-03-05T07:17:21.340Z,96141.41
2019-03-05T07:20:24.754Z,96140.69
2019-03-05T07:23:13.646Z,96142.02
2019-03-05T07:25:43.402Z,96141.88
2019-03-05T07:28:12.990Z,96148.14
2019-03-05T07:30:42.700Z,96152.16
2019-03-05T07:33:12.320Z,96167.69
2019-03-05T07:35:42.262Z,96171.66
2019-03-05T07:38:12.298Z,96164.88
2019-03-05T07:40:41.900Z,96173.48
2019-03-05T07:43:11.487Z,96177.13
2019-03-05T07:45:41.084Z,96173.66
2019-03-05T07:48:10.718Z,96161.58
2019-03-05T07:50:40.876Z,96157.45
2019-03-05T07:53:10.503Z,96155.62
2019-03-05T07:55:40.119Z,96155.27
2019-03-05T07:58:11.701Z,96151.30
2019-03-05T08:00:41.893Z,96152.13
2019-03-05T08:03:11.557Z,96147.80
2019-03-05T08:05:41.341Z,96150.78
2019-03-05T08:09:05.563Z,96151.87
2019-03-05T08:11:35.223Z,96150.87
2019-03-05T08:14:17.914Z,96153.48
2019-03-05T08:16:47.506Z,96161.78
2019-03-05T08:19:17.117Z,96167.25
2019-03-05T08:21:46.708Z,96177.15
2019-03-05T08:24:16.325Z,96182.03
2019-03-05T08:26:45.911Z,96179.63
2019-03-05T08:29:15.718Z,96179.14
2019-03-05T08:31:45.306Z,96167.23
2019-03-05T08:34:14.930Z,96172.50
2019-03-05T08:36:44.519Z,96162.98
2019-03-05T08:39:14.269Z,96172.27
2019-03-05T08:41:43.857Z,96177.37
2019-03-05T08:44:13.444Z,96186.77
2019-03-05T08:46:43.057Z,96188.38
2019-03-05T08:49:12.713Z,96190.42
2019-03-05T08:51:42.324Z,96194.42
2019-03-05T08:54:11.918Z,96182.31
2019-03-05T08:56:42.032Z,96179.56
2019-03-05T08:59:11.657Z,96168.80
2019-03-05T09:01:41.273Z,96189.63
2019-03-05T09:04:10.995Z,96207.81
2019-03-05T09:06:40.605Z,96205.72
2019-03-05T09:09:12.241Z,96204.53
2019-03-05T09:11:41.853Z,96207.83
2019-03-05T09:14:11.464Z,96207.45
2019-03-05T09:16:41.050Z,96214.09
2019-03-05T09:19:10.662Z,96203.91
2019-03-05T09:21:40.318Z,96192.05
2019-03-05T09:24:09.944Z,96201.20
2019-03-05T09:26:50.482Z,96201.26
2019-03-05T09:29:11.040Z,96198.17
2019-03-05T09:31:40.642Z,96196.70
2019-03-05T09:34:10.391Z,96199.39
2019-03-05T09:36:50.533Z,96201.15
2019-03-05T09:39:12.763Z,96206.94
2019-03-05T09:41:42.494Z,96209.48
2019-03-05T09:44:12.179Z,96211.44
2019-03-05T09:46:41.781Z,96209.05
2019-03-05T09:49:11.399Z,96207.56
2019-03-05T09:51:40.990Z,96202.61
2019-03-05T09:54:10.751Z,96204.60
2019-03-05T09:56:40.410Z,96199.47
2019-03-05T09:59:10.115Z,96188.38
2019-03-05T10:01:39.841Z,96188.69
2019-03-05T10:04:09.430Z,96195.97
2019-03-05T10:06:39.043Z,96204.23
2019-03-05T10:09:09.052Z,96211.92
2019-03-05T10:11:38.740Z,96202.98
2019-03-05T10:14:08.411Z,96210.86
2019-03-05T10:16:38.034Z,96199.19
2019-03-05T10:19:07.701Z,96209.78
2019-03-05T10:21:45.894Z,96212.95
2019-03-05T10:24:10.751Z,96218.94
2019-03-05T10:26:40.605Z,96216.77
2019-03-05T10:29:10.261Z,96207.84
2019-03-05T10:31:40.328Z,96212.11
2019-03-05T10:34:10.048Z,96211.50
2019-03-05T10:36:39.742Z,96213.27
2019-03-05T10:39:30.655Z,96212.09
2019-03-05T10:41:56.471Z,96207.50
2019-03-05T10:44:26.251Z,96207.94
2019-03-05T10:46:56.338Z,96197.71
2019-03-05T10:49:26.170Z,96192.94
2019-03-05T10:51:55.794Z,96194.08
2019-03-05T10:54:25.418Z,96186.13
2019-03-05T10:56:55.149Z,96183.97
2019-03-05T10:59:24.856Z,96183.92
2019-03-05T11:01:54.619Z,96186.42
2019-03-05T11:04:24.715Z,96186.52
2019-03-05T11:06:54.414Z,96188.76
2019-03-05T11:09:24.287Z,96170.33
2019-03-05T11:11:53.920Z,96173.10
2019-03-05T11:14:23.588Z,96173.03
2019-03-05T11:16:53.435Z,96164.16
2019-03-05T11:19:23.027Z,96164.20
2019-03-05T11:21:52.706Z,96163.52
2019-03-05T11:24:22.320Z,96162.09
2019-03-05T11:26:52.018Z,96162.13
2019-03-05T11:29:21.820Z,96161.40
2019-03-05T11:31:51.487Z,96161.05
2019-03-05T11:34:21.107Z,96156.70
2019-03-05T11:36:50.704Z,96152.23
2019-03-05T11:39:20.383Z,96153.35
2019-03-05T11:41:50.014Z,96149.23
2019-03-05T11:44:19.601Z,96148.14
2019-03-05T11:46:49.293Z,96152.63
2019-03-05T11:49:19.026Z,96146.06
2019-03-05T11:51:48.722Z,96145.52
2019-03-05T11:54:18.371Z,96139.98
2019-03-05T11:56:48.015Z,96142.36
2019-03-05T11:59:17.635Z,96138.72
2019-03-05T12:01:47.252Z,96137.90
2019-03-05T12:04:16.866Z,96131.34
2019-03-05T12:06:46.531Z,96137.53
2019-03-05T12:09:16.214Z,96128.02
2019-03-05T12:11:45.808Z,96133.29
2019-03-05T12:14:15.427Z,96130.45
2019-03-05T12:16:45.128Z,96120.88
2019-03-05T12:19:14.720Z,96124.10
2019-03-05T12:21:44.316Z,96117.02
2019-03-05T12:24:13.947Z,96112.98
2019-03-05T12:26:43.684Z,96113.30
2019-03-05T12:29:13.281Z,96114.78
2019-03-05T12:31:42.910Z,96101.44
2019-03-05T12:34:12.577Z,96103.28
2019-03-05T12:36:42.191Z,96100.38
2019-03-05T12:39:13.468Z,96092.35
2019-03-05T12:41:43.091Z,96095.27
2019-03-05T12:44:12.716Z,96097.21
2019-03-05T12:46:42.320Z,96094.61
2019-03-05T12:49:12.017Z,96091.05
2019-03-05T12:51:41.847Z,96090.30
2019-03-05T12:54:11.531Z,96086.31
2019-03-05T12:56:41.223Z,96081.09
2019-03-05T12:59:10.818Z,96083.30
2019-03-05T13:01:40.523Z,96077.20
2019-03-05T13:04:10.258Z,96067.63
2019-03-05T13:06:39.925Z,96068.11
2019-03-05T13:09:17.793Z,96075.01
2019-03-05T13:11:46.589Z,96077.73
2019-03-05T13:14:16.880Z,96075.01
2019-03-05T13:16:46.548Z,96078.34
2019-03-05T13:19:16.303Z,96082.34
2019-03-05T13:21:48.544Z,96078.52
2019-03-05T13:24:17.267Z,96072.52
2019-03-05T13:26:46.872Z,96083.59
2019-03-05T13:29:19.159Z,96081.14
2019-03-05T13:31:47.818Z,96086.42
2019-03-05T13:34:17.705Z,96087.28
2019-03-05T13:36:50.606Z,96083.37
2019-03-05T13:39:22.221Z,96090.31
2019-03-05T13:41:55.282Z,96084.31
2019-03-05T13:44:34.011Z,96091.80
2019-03-05T13:47:05.708Z,96078.23
2019-03-05T13:49:45.734Z,96079.89
2019-03-05T13:52:50.457Z,96081.11
2019-03-05T13:55:53.137Z,96074.89
2019-03-05T13:59:12.065Z,96083.27
2019-03-05T14:01:42.398Z,96082.73
2019-03-05T14:04:53.832Z,96075.17
2019-03-05T14:07:59.157Z,96071.25
2019-03-05T14:10:28.751Z,96076.84
2019-03-05T14:12:58.527Z,96064.98
2019-03-05T14:15:28.493Z,96065.49
2019-03-05T14:17:58.148Z,96070.79
2019-03-05T14:20:32.064Z,96061.49
2019-03-05T14:22:59.092Z,96062.23
2019-03-05T14:25:28.783Z,96062.80
2019-03-05T14:27:58.441Z,96062.51
2019-03-05T14:30:28.269Z,96064.16
2019-03-05T14:32:57.925Z,96059.62
2019-03-05T14:35:27.987Z,96062.08
2019-03-05T14:37:57.716Z,96068.84
2019-03-05T14:40:30.260Z,96068.76
2019-03-05T14:43:00.180Z,96071.71
2019-03-05T14:45:36.570Z,96076.09
2019-03-05T14:48:06.649Z,96065.20
2019-03-05T14:50:36.789Z,96062.29
2019-03-05T14:53:06.634Z,96065.65
2019-03-05T14:55:36.361Z,96064.83
2019-03-05T14:58:06.154Z,96059.97
2019-03-05T15:00:35.877Z,96059.82
2019-03-05T15:03:05.764Z,96067.50
2019-03-05T15:05:35.568Z,96071.47
2019-03-05T15:08:05.231Z,96061.39
2019-03-05T15:10:35.145Z,96061.10
2019-03-05T15:13:15.294Z,96062.00
2019-03-05T15:15:36.784Z,96064.58
2019-03-05T15:18:06.619Z,96062.95
2019-03-05T15:20:36.228Z,96066.97
2019-03-05T15:23:05.915Z,96072.27
2019-03-05T15:25:35.608Z,96064.43
2019-03-05T15:28:05.448Z,96066.00
2019-03-05T15:30:35.287Z,96068.94
2019-03-05T15:33:04.914Z,96066.11
2019-03-05T15:35:34.546Z,96066.69
2019-03-05T15:38:04.168Z,96059.47
2019-03-05T15:40:33.729Z,96060.59
2019-03-05T15:43:03.374Z,96046.81
2019-03-05T15:48:16.841Z,96048.37
2019-03-05T15:50:46.425Z,96055.58
2019-03-05T15:53:16.018Z,96054.85
2019-03-05T15:55:45.705Z,96050.00
2019-03-05T15:58:15.300Z,96049.25
2019-03-05T16:00:45.364Z,96054.66
2019-03-05T16:03:14.955Z,96055.03
2019-03-05T16:05:44.719Z,96062.00
2019-03-05T16:08:14.313Z,96065.62
2019-03-05T16:10:43.923Z,96067.47
2019-03-05T16:13:15.367Z,96073.05
2019-03-05T16:15:45.456Z,96068.30
2019-03-05T16:18:16.187Z,96074.81
2019-03-05T16:20:45.881Z,96075.37
2019-03-05T16:23:15.502Z,96082.41
2019-03-05T16:25:49.852Z,96083.03
2019-03-05T16:28:16.984Z,96095.05
2019-03-05T16:31:00.229Z,96095.17
2019-03-05T16:33:32.508Z,96100.70
2019-03-05T16:36:17.383Z,96099.93
2019-03-05T16:39:03.947Z,96100.20
2019-03-05T16:41:53.408Z,96106.97
2019-03-05T16:44:31.318Z,96100.30
2019-03-05T16:47:00.670Z,96100.38
2019-03-05T16:49:32.206Z,96105.67
2019-03-05T16:52:19.609Z,96108.64
2019-03-05T16:54:50.944Z,96108.49
2019-03-05T16:57:22.450Z,96101.49
2019-03-05T16:59:53.707Z,96100.69
2019-03-05T17:02:30.972Z,96110.31
2019-03-05T17:05:00.360Z,96114.77
2019-03-05T17:07:37.439Z,96115.27
2019-03-05T17:10:15.493Z,96116.92
2019-03-05T17:12:45.092Z,96120.16
2019-03-05T17:15:15.135Z,96131.33
2019-03-05T17:17:44.734Z,96135.61
2019-03-05T17:20:14.776Z,96134.95
2019-03-05T17:22:44.372Z,96136.55
2019-03-05T17:25:18.330Z,96141.95
2019-03-05T17:27:47.953Z,96145.83
2019-03-05T17:30:18.647Z,96149.84
2019-03-05T17:32:49.101Z,96152.41
2019-03-05T17:35:18.987Z,96157.34
2019-03-05T17:37:48.857Z,96160.89
2019-03-05T17:40:18.626Z,96162.94
2019-03-05T17:42:50.126Z,96169.02
2019-03-05T17:45:24.659Z,96167.83
2019-03-05T17:47:54.658Z,96174.58
2019-03-05T17:50:24.384Z,96176.14
2019-03-05T17:52:54.004Z,96179.91
2019-03-05T17:55:28.719Z,96177.95
2019-03-05T17:57:58.485Z,96187.84
2019-03-05T18:00:33.002Z,96181.66
2019-03-05T18:03:02.596Z,96190.22
2019-03-05T18:05:32.323Z,96188.23
2019-03-05T18:08:02.129Z,96192.27
2019-03-05T18:10:31.933Z,96198.37
2019-03-05T18:13:01.615Z,96190.89
2019-03-05T18:15:31.204Z,96186.70
2019-03-05T18:18:00.886Z,96191.14
2019-03-05T18:20:30.644Z,96187.16
2019-03-05T18:23:00.258Z,96187.69
2019-03-05T18:25:29.958Z,96197.61
2019-03-05T18:27:59.546Z,96185.95
2019-03-05T18:30:31.142Z,96186.62
2019-03-05T18:33:00.939Z,96192.27
2019-03-05T18:35:30.562Z,96190.83
2019-03-05T18:38:00.159Z,96188.20
2019-03-05T18:40:30.151Z,96183.55
2019-03-05T18:42:59.910Z,96189.75
2019-03-05T18:45:41.751Z,96189.58
2019-03-05T18:48:11.534Z,96196.45
2019-03-05T18:50:41.224Z,96204.59
2019-03-05T18:53:10.980Z,96211.91
2019-03-05T18:55:42.178Z,96226.72
2019-03-05T18:58:11.788Z,96236.95
2019-03-05T19:00:41.613Z,96236.20
2019-03-05T19:03:17.752Z,96247.48
2019-03-05T19:05:47.744Z,96244.25
2019-03-05T19:08:17.350Z,96255.11
2019-03-05T19:10:47.029Z,96255.72
2019-03-05T19:13:16.783Z,96254.30
2019-03-05T19:15:46.744Z,96259.46
2019-03-05T19:18:16.334Z,96272.05
2019-03-05T19:20:46.017Z,96269.69
2019-03-05T19:23:15.608Z,96278.39
2019-03-05T19:25:47.227Z,96296.02
2019-03-05T19:28:16.994Z,96289.83
2019-03-05T19:30:51.891Z,96283.98
2019-03-05T19:33:21.643Z,96275.05
2019-03-05T19:35:51.256Z,96269.16
2019-03-05T19:38:21.479Z,96273.35
2019-03-05T19:40:51.133Z,96274.26
2019-03-05T19:43:20.745Z,96281.98
2019-03-05T19:45:50.403Z,96299.73
2019-03-05T19:48:20.087Z,96301.68
2019-03-05T19:50:49.669Z,96305.17
2019-03-05T19:53:19.360Z,96305.61
2019-03-05T19:55:49.046Z,96307.61
2019-03-05T19:58:18.655Z,96315.36
2019-03-05T20:01:12.726Z,96312.23
2019-03-05T20:03:42.409Z,96320.04
2019-03-05T20:06:12.503Z,96321.94
2019-03-05T20:08:42.111Z,96322.23
2019-03-05T20:11:11.793Z,96325.84
2019-03-05T20:13:41.452Z,96323.83
2019-03-05T20:16:11.338Z,96331.67
2019-03-05T20:18:40.930Z,96323.44
2019-03-05T20:21:10.822Z,96315.00
2019-03-05T20:23:40.403Z,96326.25
2019-03-05T20:26:10.028Z,96326.93
2019-03-05T20:28:39.615Z,96328.90
2019-03-05T20:31:09.441Z,96325.11
2019-03-05T20:33:39.033Z,96335.66
2019-03-05T20:36:08.715Z,96329.56
2019-03-05T20:38:38.300Z,96330.34
2019-03-05T20:41:07.919Z,96335.87
2019-03-05T20:43:37.502Z,96338.30
2019-03-05T20:46:17.677Z,96339.28
2019-03-05T20:48:47.403Z,96344.73
2019-03-05T20:51:17.016Z,96338.06
2019-03-05T20:53:46.602Z,96350.47
2019-03-05T20:56:16.284Z,96356.16
2019-03-05T20:58:45.879Z,96361.00
2019-03-05T21:01:15.561Z,96363.11
2019-03-05T21:03:45.248Z,96366.29
2019-03-05T21:06:15.161Z,96372.27
2019-03-05T21:08:44.775Z,96379.16
2019-03-05T21:11:14.428Z,96377.84
2019-03-05T21:13:44.111Z,96387.20
2019-03-05T21:16:13.836Z,96386.23
2019-03-05T21:18:43.455Z,96391.07
2019-03-05T21:21:13.043Z,96392.55
2019-03-05T21:23:42.670Z,96395.47
2019-03-05T21:26:12.342Z,96398.47
2019-03-05T21:28:41.944Z,96400.50
2019-03-05T21:31:11.629Z,96397.91
2019-03-05T21:33:41.214Z,96400.80
2019-03-05T21:36:10.835Z,96397.80
2019-03-05T21:38:40.441Z,96399.91
2019-03-05T21:41:10.131Z,96403.69
2019-03-05T21:43:39.722Z,96406.52
2019-03-05T21:46:16.445Z,96406.92
2019-03-05T21:48:46.101Z,96395.62
2019-03-05T21:51:15.699Z,96395.06
2019-03-05T21:53:45.324Z,96378.98
2019-03-05T21:56:14.938Z,96378.36
2019-03-05T21:58:44.526Z,96384.45
2019-03-05T22:01:14.216Z,96391.33
2019-03-05T22:03:43.825Z,96398.28
2019-03-05T22:06:13.421Z,96407.38
2019-03-05T22:08:43.043Z,96411.23
2019-03-05T22:11:12.635Z,96419.28
2019-03-05T22:13:42.315Z,96411.14
2019-03-05T22:16:12.107Z,96410.98
2019-03-05T22:18:41.761Z,96423.10
2019-03-05T22:21:11.382Z,96426.05
2019-03-05T22:23:40.979Z,96436.47
2019-03-05T22:26:10.588Z,96428.80
2019-03-05T22:28:40.253Z,96435.16
2019-03-05T22:31:09.865Z,96441.52
2019-03-05T22:33:39.455Z,96441.17
2019-03-05T22:36:09.137Z,96452.89
2019-03-05T22:38:38.722Z,96456.73
2019-03-05T22:41:08.326Z,96457.27
2019-03-05T22:43:37.985Z,96458.10
2019-03-05T22:46:07.667Z,96469.16
2019-03-05T22:48:37.292Z,96468.23
2019-03-05T22:51:06.887Z,96469.98
2019-03-05T22:53:36.480Z,96467.28
2019-03-05T22:56:06.232Z,96473.92
2019-03-05T22:58:35.818Z,96474.27
2019-03-05T23:01:07.223Z,96481.86
2019-03-05T23:03:37.518Z,96485.02
2019-03-05T23:06:11.675Z,96479.84
2019-03-05T23:08:41.330Z,96484.95
2019-03-05T23:11:11.180Z,96485.13
2019-03-05T23:13:41.072Z,96493.73
2019-03-05T23:16:10.892Z,96491.00
2019-03-05T23:18:40.586Z,96496.88
2019-03-05T23:21:10.936Z,96508.52
2019-03-05T23:23:40.625Z,96502.75
2019-03-05T23:26:10.724Z,96508.39
2019-03-05T23:28:40.478Z,96505.75
2019-03-05T23:31:12.772Z,96512.55
2019-03-05T23:33:42.598Z,96515.31
2019-03-05T23:36:12.417Z,96520.66
2019-03-05T23:38:42.231Z,96517.12
2019-03-05T23:41:11.844Z,96523.17
2019-03-05T23:43:41.505Z,96524.33
2019-03-05T23:46:11.176Z,96521.27
2019-03-05T23:48:40.901Z,96526.55
2019-03-05T23:51:10.584Z,96527.11
2019-03-05T23:53:40.196Z,96528.64
2019-03-05T23:56:09.808Z,96530.84
2019-03-05T23:58:39.422Z,96537.47
